sensor_id;sensor_type;location;lat;lon;timestamp;pressure;altitude;pressure_sealevel;temperature;humidity
33697;BME280;20031;43.416;23.232;2023-03-21T00:01:18;99943.19;;;10.90;66.23
33697;BME280;20031;43.416;23.232;2023-03-21T00:03:43;99939.97;;;10.88;66.25
33697;BME280;20031;43.416;23.232;2023-03-21T00:06:11;99937.34;;;10.88;66.31
33697;BME280;20031;43.416;23.232;2023-03-21T00:08:38;99934.09;;;10.86;66.85
33697;BME280;20031;43.416;23.232;2023-03-21T00:11:05;99924.50;;;10.87;66.54
33697;BME280;20031;43.416;23.232;2023-03-21T00:13:32;99920.25;;;10.86;67.17
33697;BME280;20031;43.416;23.232;2023-03-21T00:16:08;99927.44;;;10.84;66.83
33697;BME280;20031;43.416;23.232;2023-03-21T00:18:34;99928.22;;;10.84;67.12
33697;BME280;20031;43.416;23.232;2023-03-21T00:21:07;99921.38;;;10.83;67.09
33697;BME280;20031;43.416;23.232;2023-03-21T00:23:33;99929.19;;;10.83;67.03
33697;BME280;20031;43.416;23.232;2023-03-21T00:25:59;99931.00;;;10.83;67.30
33697;BME280;20031;43.416;23.232;2023-03-21T00:28:26;99919.78;;;10.82;67.19
33697;BME280;20031;43.416;23.232;2023-03-21T00:30:58;99924.97;;;10.82;67.11
33697;BME280;20031;43.416;23.232;2023-03-21T00:33:24;99925.94;;;10.81;66.99
33697;BME280;20031;43.416;23.232;2023-03-21T00:35:50;99923.34;;;10.81;67.15
33697;BME280;20031;43.416;23.232;2023-03-21T00:38:17;99918.31;;;10.80;67.07
33697;BME280;20031;43.416;23.232;2023-03-21T00:40:43;99923.69;;;10.78;66.58
33697;BME280;20031;43.416;23.232;2023-03-21T00:43:09;99920.44;;;10.76;67.00
33697;BME280;20031;43.416;23.232;2023-03-21T00:45:36;99919.75;;;10.74;66.78
33697;BME280;20031;43.416;23.232;2023-03-21T00:48:03;99928.72;;;10.72;66.86
33697;BME280;20031;43.416;23.232;2023-03-21T00:50:29;99923.03;;;10.68;66.76
33697;BME280;20031;43.416;23.232;2023-03-21T00:52:56;99929.38;;;10.66;66.81
33697;BME280;20031;43.416;23.232;2023-03-21T00:55:22;99933.09;;;10.64;67.29
33697;BME280;20031;43.416;23.232;2023-03-21T00:57:48;99925.59;;;10.61;67.35
33697;BME280;20031;43.416;23.232;2023-03-21T01:00:14;99924.97;;;10.59;67.30
33697;BME280;20031;43.416;23.232;2023-03-21T01:02:40;99927.56;;;10.59;67.90
33697;BME280;20031;43.416;23.232;2023-03-21T01:05:28;99928.22;;;10.61;67.39
33697;BME280;20031;43.416;23.232;2023-03-21T01:08:14;99915.03;;;10.62;67.54
33697;BME280;20031;43.416;23.232;2023-03-21T01:10:42;99928.88;;;10.63;67.69
33697;BME280;20031;43.416;23.232;2023-03-21T01:13:12;99929.53;;;10.65;67.88
33697;BME280;20031;43.416;23.232;2023-03-21T01:15:43;99914.06;;;10.63;67.99
33697;BME280;20031;43.416;23.232;2023-03-21T01:18:09;99928.88;;;10.63;68.27
33697;BME280;20031;43.416;23.232;2023-03-21T01:20:34;99919.28;;;10.63;68.70
33697;BME280;20031;43.416;23.232;2023-03-21T01:23:00;99926.91;;;10.65;68.46
33697;BME280;20031;43.416;23.232;2023-03-21T01:25:26;99915.69;;;10.64;67.91
33697;BME280;20031;43.416;23.232;2023-03-21T01:27:51;99909.53;;;10.65;68.60
33697;BME280;20031;43.416;23.232;2023-03-21T01:30:19;99913.56;;;10.68;68.34
33697;BME280;20031;43.416;23.232;2023-03-21T01:32:45;99913.41;;;10.69;67.88
33697;BME280;20031;43.416;23.232;2023-03-21T01:35:10;99907.41;;;10.68;67.78
33697;BME280;20031;43.416;23.232;2023-03-21T01:37:36;99904.28;;;10.73;67.80
33697;BME280;20031;43.416;23.232;2023-03-21T01:40:03;99915.22;;;10.76;67.42
33697;BME280;20031;43.416;23.232;2023-03-21T01:42:29;99907.25;;;10.78;66.94
33697;BME280;20031;43.416;23.232;2023-03-21T01:44:59;99910.66;;;10.78;67.25
33697;BME280;20031;43.416;23.232;2023-03-21T01:47:25;99904.47;;;10.79;67.17
33697;BME280;20031;43.416;23.232;2023-03-21T01:49:53;99905.28;;;10.80;66.96
33697;BME280;20031;43.416;23.232;2023-03-21T01:52:25;99900.88;;;10.80;67.02
33697;BME280;20031;43.416;23.232;2023-03-21T01:54:53;99899.91;;;10.81;66.71
33697;BME280;20031;43.416;23.232;2023-03-21T01:57:33;99900.88;;;10.80;66.85
33697;BME280;20031;43.416;23.232;2023-03-21T02:00:05;99897.63;;;10.78;66.80
33697;BME280;20031;43.416;23.232;2023-03-21T02:02:39;99902.84;;;10.78;66.96
33697;BME280;20031;43.416;23.232;2023-03-21T02:05:20;99889.81;;;10.78;66.64
33697;BME280;20031;43.416;23.232;2023-03-21T02:07:48;99883.97;;;10.76;66.76
33697;BME280;20031;43.416;23.232;2023-03-21T02:10:17;99885.75;;;10.76;66.72
33697;BME280;20031;43.416;23.232;2023-03-21T02:12:43;99896.81;;;10.78;66.81
33697;BME280;20031;43.416;23.232;2023-03-21T02:15:09;99891.63;;;10.78;66.86
33697;BME280;20031;43.416;23.232;2023-03-21T02:18:02;99885.56;;;10.77;66.39
33697;BME280;20031;43.416;23.232;2023-03-21T02:40:22;99893.88;;;10.73;66.55
33697;BME280;20031;43.416;23.232;2023-03-21T02:45:18;99883.97;;;10.76;65.72
33697;BME280;20031;43.416;23.232;2023-03-21T02:47:50;99880.88;;;10.81;65.40
33697;BME280;20031;43.416;23.232;2023-03-21T02:50:32;99888.69;;;10.81;64.97
33697;BME280;20031;43.416;23.232;2023-03-21T02:53:01;99880.19;;;10.79;65.23
33697;BME280;20031;43.416;23.232;2023-03-21T02:55:30;99880.38;;;10.77;65.45
33697;BME280;20031;43.416;23.232;2023-03-21T02:57:57;99891.09;;;10.74;65.67
33697;BME280;20031;43.416;23.232;2023-03-21T03:00:26;99887.88;;;10.72;65.84
33697;BME280;20031;43.416;23.232;2023-03-21T03:02:53;99883.31;;;10.67;66.06
33697;BME280;20031;43.416;23.232;2023-03-21T03:05:23;99880.88;;;10.65;66.35
33697;BME280;20031;43.416;23.232;2023-03-21T03:18:28;99862.63;;;10.49;67.90
33697;BME280;20031;43.416;23.232;2023-03-21T03:21:16;99866.56;;;10.45;68.16
33697;BME280;20031;43.416;23.232;2023-03-21T03:26:28;99862.63;;;10.41;69.11
33697;BME280;20031;43.416;23.232;2023-03-21T03:28:59;99857.59;;;10.40;69.08
33697;BME280;20031;43.416;23.232;2023-03-21T03:31:29;99856.94;;;10.38;68.94
33697;BME280;20031;43.416;23.232;2023-03-21T03:34:00;99854.31;;;10.38;68.82
33697;BME280;20031;43.416;23.232;2023-03-21T03:36:31;99856.94;;;10.38;68.67
33697;BME280;20031;43.416;23.232;2023-03-21T03:39:02;99857.94;;;10.37;68.55
33697;BME280;20031;43.416;23.232;2023-03-21T03:41:37;99864.09;;;10.36;69.12
33697;BME280;20031;43.416;23.232;2023-03-21T03:44:05;99853.19;;;10.32;68.68
33697;BME280;20031;43.416;23.232;2023-03-21T03:46:35;99860.34;;;10.30;68.91
33697;BME280;20031;43.416;23.232;2023-03-21T03:49:08;99868.31;;;10.29;68.95
33697;BME280;20031;43.416;23.232;2023-03-21T03:51:43;99868.66;;;10.26;69.46
33697;BME280;20031;43.416;23.232;2023-03-21T03:54:18;99866.69;;;10.20;70.08
33697;BME280;20031;43.416;23.232;2023-03-21T03:56:45;99865.53;;;10.15;70.59
33697;BME280;20031;43.416;23.232;2023-03-21T03:59:11;99858.38;;;10.09;71.13
33697;BME280;20031;43.416;23.232;2023-03-21T04:01:36;99861.59;;;10.03;71.30
33697;BME280;20031;43.416;23.232;2023-03-21T04:04:02;99863.88;;;9.98;71.64
33697;BME280;20031;43.416;23.232;2023-03-21T04:06:27;99866.09;;;9.93;71.63
33697;BME280;20031;43.416;23.232;2023-03-21T04:08:54;99871.78;;;9.88;71.42
33697;BME280;20031;43.416;23.232;2023-03-21T04:11:21;99868.69;;;9.85;71.44
33697;BME280;20031;43.416;23.232;2023-03-21T04:13:46;99866.56;;;9.80;71.38
33697;BME280;20031;43.416;23.232;2023-03-21T04:16:11;99876.97;;;9.80;70.78
33697;BME280;20031;43.416;23.232;2023-03-21T04:18:39;99876.28;;;9.78;70.71
33697;BME280;20031;43.416;23.232;2023-03-21T04:21:11;99874.00;;;9.75;70.50
33697;BME280;20031;43.416;23.232;2023-03-21T04:23:38;99870.75;;;9.73;70.92
33697;BME280;20031;43.416;23.232;2023-03-21T04:26:05;99869.13;;;9.72;70.72
33697;BME280;20031;43.416;23.232;2023-03-21T04:28:32;99882.44;;;9.69;70.90
33697;BME280;20031;43.416;23.232;2023-03-21T04:30:58;99882.44;;;9.69;70.91
33697;BME280;20031;43.416;23.232;2023-03-21T04:33:24;99878.22;;;9.68;71.04
33697;BME280;20031;43.416;23.232;2023-03-21T04:35:51;99884.25;;;9.69;71.18
33697;BME280;20031;43.416;23.232;2023-03-21T04:38:21;99883.41;;;9.68;70.94
33697;BME280;20031;43.416;23.232;2023-03-21T04:40:47;99883.41;;;9.68;71.21
33697;BME280;20031;43.416;23.232;2023-03-21T04:43:13;99886.69;;;9.70;71.35
33697;BME280;20031;43.416;23.232;2023-03-21T04:45:38;99883.94;;;9.72;71.34
33697;BME280;20031;43.416;23.232;2023-03-21T04:48:04;99881.97;;;9.74;71.36
33697;BME280;20031;43.416;23.232;2023-03-21T04:50:30;99883.28;;;9.78;71.20
33697;BME280;20031;43.416;23.232;2023-03-21T04:52:56;99883.78;;;9.81;71.03
33697;BME280;20031;43.416;23.232;2023-03-21T04:55:22;99892.91;;;9.85;71.17
33697;BME280;20031;43.416;23.232;2023-03-21T04:57:49;99899.41;;;9.89;70.84
33697;BME280;20031;43.416;23.232;2023-03-21T05:00:14;99892.94;;;9.93;71.26
33697;BME280;20031;43.416;23.232;2023-03-21T05:02:40;99896.88;;;9.97;70.82
33697;BME280;20031;43.416;23.232;2023-03-21T05:05:06;99894.78;;;10.01;70.68
33697;BME280;20031;43.416;23.232;2023-03-21T05:07:36;99896.88;;;10.05;71.02
33697;BME280;20031;43.416;23.232;2023-03-21T05:10:02;99892.34;;;10.07;70.59
33697;BME280;20031;43.416;23.232;2023-03-21T05:12:27;99899.16;;;10.08;70.83
33697;BME280;20031;43.416;23.232;2023-03-21T05:14:53;99895.44;;;10.11;71.01
33697;BME280;20031;43.416;23.232;2023-03-21T05:17:18;99894.00;;;10.16;70.78
33697;BME280;20031;43.416;23.232;2023-03-21T05:19:47;99899.53;;;10.21;70.61
33697;BME280;20031;43.416;23.232;2023-03-21T05:22:15;99901.19;;;10.30;70.91
33697;BME280;20031;43.416;23.232;2023-03-21T05:24:44;99901.84;;;10.40;70.37
33697;BME280;20031;43.416;23.232;2023-03-21T05:27:15;99892.09;;;10.50;69.46
33697;BME280;20031;43.416;23.232;2023-03-21T05:29:59;99888.69;;;10.57;68.87
33697;BME280;20031;43.416;23.232;2023-03-21T05:32:25;99896.50;;;10.65;68.52
33697;BME280;20031;43.416;23.232;2023-03-21T05:34:50;99892.41;;;10.78;68.52
33697;BME280;20031;43.416;23.232;2023-03-21T05:37:16;99887.19;;;10.94;68.30
33697;BME280;20031;43.416;23.232;2023-03-21T05:39:41;99894.81;;;11.12;67.99
33697;BME280;20031;43.416;23.232;2023-03-21T05:42:06;99892.38;;;11.26;67.58
33697;BME280;20031;43.416;23.232;2023-03-21T05:44:32;99883.50;;;11.43;66.93
33697;BME280;20031;43.416;23.232;2023-03-21T05:46:57;99886.72;;;11.61;66.26
33697;BME280;20031;43.416;23.232;2023-03-21T05:49:23;99879.81;;;11.75;65.43
33697;BME280;20031;43.416;23.232;2023-03-21T05:51:48;99876.47;;;11.89;64.39
33697;BME280;20031;43.416;23.232;2023-03-21T05:54:15;99878.03;;;12.06;63.61
33697;BME280;20031;43.416;23.232;2023-03-21T05:56:40;99878.25;;;12.19;62.43
33697;BME280;20031;43.416;23.232;2023-03-21T05:59:06;99878.22;;;12.27;60.70
33697;BME280;20031;43.416;23.232;2023-03-21T06:01:32;99881.81;;;12.26;60.01
33697;BME280;20031;43.416;23.232;2023-03-21T06:03:57;99879.19;;;12.26;60.69
33697;BME280;20031;43.416;23.232;2023-03-21T06:06:23;99882.34;;;12.22;60.88
33697;BME280;20031;43.416;23.232;2023-03-21T06:08:48;99882.03;;;12.17;61.36
33697;BME280;20031;43.416;23.232;2023-03-21T06:11:22;99884.00;;;12.15;61.11
33697;BME280;20031;43.416;23.232;2023-03-21T06:13:48;99883.84;;;12.16;61.14
33697;BME280;20031;43.416;23.232;2023-03-21T06:16:14;99875.31;;;12.22;60.75
33697;BME280;20031;43.416;23.232;2023-03-21T06:18:40;99878.31;;;12.33;60.38
33697;BME280;20031;43.416;23.232;2023-03-21T06:21:05;99877.13;;;12.44;60.25
33697;BME280;20031;43.416;23.232;2023-03-21T06:23:31;99879.50;;;12.53;59.66
33697;BME280;20031;43.416;23.232;2023-03-21T06:25:56;99878.47;;;12.62;60.19
33697;BME280;20031;43.416;23.232;2023-03-21T06:28:22;99890.16;;;12.88;60.24
33697;BME280;20031;43.416;23.232;2023-03-21T06:30:47;99881.38;;;13.18;59.66
33697;BME280;20031;43.416;23.232;2023-03-21T06:33:12;99879.97;;;13.30;59.09
33697;BME280;20031;43.416;23.232;2023-03-21T06:35:38;99884.72;;;13.41;58.38
33697;BME280;20031;43.416;23.232;2023-03-21T06:38:03;99888.38;;;13.54;58.63
33697;BME280;20031;43.416;23.232;2023-03-21T06:40:29;99892.31;;;13.65;58.45
33697;BME280;20031;43.416;23.232;2023-03-21T06:42:54;99895.56;;;13.67;57.74
33697;BME280;20031;43.416;23.232;2023-03-21T06:45:20;99891.59;;;13.71;58.50
33697;BME280;20031;43.416;23.232;2023-03-21T06:47:46;99898.38;;;13.79;57.97
33697;BME280;20031;43.416;23.232;2023-03-21T06:50:11;99896.00;;;13.84;58.02
33697;BME280;20031;43.416;23.232;2023-03-21T06:52:37;99893.13;;;13.79;57.59
33697;BME280;20031;43.416;23.232;2023-03-21T06:55:02;99889.78;;;13.85;57.33
33697;BME280;20031;43.416;23.232;2023-03-21T06:57:28;99886.66;;;13.96;57.42
33697;BME280;20031;43.416;23.232;2023-03-21T06:59:53;99899.47;;;14.20;56.55
33697;BME280;20031;43.416;23.232;2023-03-21T07:02:18;99889.31;;;14.31;55.15
33697;BME280;20031;43.416;23.232;2023-03-21T07:04:44;99888.63;;;14.44;54.95
33697;BME280;20031;43.416;23.232;2023-03-21T07:07:10;99884.41;;;14.64;54.73
33697;BME280;20031;43.416;23.232;2023-03-21T07:09:35;99899.28;;;14.84;54.15
33697;BME280;20031;43.416;23.232;2023-03-21T07:12:01;99898.78;;;14.95;53.09
33697;BME280;20031;43.416;23.232;2023-03-21T07:14:26;99897.81;;;15.02;53.05
33697;BME280;20031;43.416;23.232;2023-03-21T07:16:51;99899.94;;;15.13;52.54
33697;BME280;20031;43.416;23.232;2023-03-21T07:19:17;99894.09;;;15.18;52.18
33697;BME280;20031;43.416;23.232;2023-03-21T07:21:42;99901.44;;;15.22;52.23
33697;BME280;20031;43.416;23.232;2023-03-21T07:24:08;99893.03;;;15.33;52.34
33697;BME280;20031;43.416;23.232;2023-03-21T07:26:33;99893.69;;;15.41;51.95
33697;BME280;20031;43.416;23.232;2023-03-21T07:28:58;99893.78;;;15.54;52.33
33697;BME280;20031;43.416;23.232;2023-03-21T07:31:24;99896.28;;;15.69;51.98
33697;BME280;20031;43.416;23.232;2023-03-21T07:33:51;99893.69;;;15.82;51.84
33697;BME280;20031;43.416;23.232;2023-03-21T07:36:16;99898.41;;;15.99;51.44
33697;BME280;20031;43.416;23.232;2023-03-21T07:38:43;99896.72;;;16.25;50.82
33697;BME280;20031;43.416;23.232;2023-03-21T07:41:09;99897.00;;;16.43;50.43
33697;BME280;20031;43.416;23.232;2023-03-21T07:43:34;99888.91;;;16.64;49.56
33697;BME280;20031;43.416;23.232;2023-03-21T07:46:00;99887.31;;;16.82;49.21
33697;BME280;20031;43.416;23.232;2023-03-21T07:48:27;99895.22;;;17.01;48.78
33697;BME280;20031;43.416;23.232;2023-03-21T07:50:52;99891.34;;;17.17;48.24
33697;BME280;20031;43.416;23.232;2023-03-21T07:53:18;99889.16;;;17.27;47.79
33697;BME280;20031;43.416;23.232;2023-03-21T07:55:44;99889.75;;;17.35;47.43
33697;BME280;20031;43.416;23.232;2023-03-21T07:58:09;99888.28;;;17.39;47.09
33697;BME280;20031;43.416;23.232;2023-03-21T08:00:35;99887.88;;;17.48;47.04
33697;BME280;20031;43.416;23.232;2023-03-21T08:03:00;99885.00;;;17.63;46.68
33697;BME280;20031;43.416;23.232;2023-03-21T08:05:33;99884.97;;;17.76;46.59
33697;BME280;20031;43.416;23.232;2023-03-21T08:07:59;99880.91;;;17.73;46.06
33697;BME280;20031;43.416;23.232;2023-03-21T08:10:25;99891.03;;;17.83;45.71
33697;BME280;20031;43.416;23.232;2023-03-21T08:12:52;99885.16;;;17.81;45.84
33697;BME280;20031;43.416;23.232;2023-03-21T08:15:17;99889.81;;;17.85;45.40
33697;BME280;20031;43.416;23.232;2023-03-21T08:17:43;99894.44;;;17.89;45.93
33697;BME280;20031;43.416;23.232;2023-03-21T08:20:17;99885.13;;;17.87;45.37
33697;BME280;20031;43.416;23.232;2023-03-21T08:22:45;99883.91;;;17.83;45.67
33697;BME280;20031;43.416;23.232;2023-03-21T08:25:12;99882.03;;;17.96;45.58
33697;BME280;20031;43.416;23.232;2023-03-21T08:27:40;99888.31;;;18.02;45.70
33697;BME280;20031;43.416;23.232;2023-03-21T08:30:07;99891.97;;;17.94;45.32
33697;BME280;20031;43.416;23.232;2023-03-21T08:32:32;99894.00;;;17.99;45.53
33697;BME280;20031;43.416;23.232;2023-03-21T08:34:59;99893.19;;;17.98;45.09
33697;BME280;20031;43.416;23.232;2023-03-21T08:37:26;99889.53;;;17.99;45.16
33697;BME280;20031;43.416;23.232;2023-03-21T08:39:52;99882.41;;;18.06;45.15
33697;BME280;20031;43.416;23.232;2023-03-21T08:42:18;99880.16;;;18.16;45.13
33697;BME280;20031;43.416;23.232;2023-03-21T08:44:45;99883.59;;;18.17;44.59
33697;BME280;20031;43.416;23.232;2023-03-21T08:47:10;99877.53;;;18.16;44.98
33697;BME280;20031;43.416;23.232;2023-03-21T08:49:36;99878.72;;;18.20;44.74
33697;BME280;20031;43.416;23.232;2023-03-21T08:52:01;99881.88;;;18.35;44.49
33697;BME280;20031;43.416;23.232;2023-03-21T08:54:27;99886.28;;;18.41;44.08
33697;BME280;20031;43.416;23.232;2023-03-21T08:56:52;99877.91;;;18.50;44.19
33697;BME280;20031;43.416;23.232;2023-03-21T08:59:18;99895.06;;;18.66;42.91
33697;BME280;20031;43.416;23.232;2023-03-21T09:01:43;99893.09;;;18.86;43.27
33697;BME280;20031;43.416;23.232;2023-03-21T09:04:09;99882.13;;;19.13;42.54
33697;BME280;20031;43.416;23.232;2023-03-21T09:06:39;99883.88;;;19.19;42.17
33697;BME280;20031;43.416;23.232;2023-03-21T09:09:14;99883.53;;;19.33;41.66
33697;BME280;20031;43.416;23.232;2023-03-21T09:11:40;99881.88;;;19.39;41.51
33697;BME280;20031;43.416;23.232;2023-03-21T09:14:06;99871.78;;;19.53;41.51
33697;BME280;20031;43.416;23.232;2023-03-21T09:16:32;99878.50;;;19.67;40.59
33697;BME280;20031;43.416;23.232;2023-03-21T09:18:57;99876.88;;;19.84;40.64
33697;BME280;20031;43.416;23.232;2023-03-21T09:21:24;99877.31;;;19.81;40.28
33697;BME280;20031;43.416;23.232;2023-03-21T09:23:51;99871.03;;;19.82;41.06
33697;BME280;20031;43.416;23.232;2023-03-21T09:26:22;99876.97;;;19.96;40.89
33697;BME280;20031;43.416;23.232;2023-03-21T09:28:48;99876.16;;;20.13;40.48
33697;BME280;20031;43.416;23.232;2023-03-21T09:31:14;99866.00;;;20.39;40.12
33697;BME280;20031;43.416;23.232;2023-03-21T09:33:41;99865.16;;;20.27;39.78
33697;BME280;20031;43.416;23.232;2023-03-21T09:36:10;99868.94;;;20.20;39.92
33697;BME280;20031;43.416;23.232;2023-03-21T09:38:39;99857.38;;;20.03;40.31
33697;BME280;20031;43.416;23.232;2023-03-21T09:46:49;99856.56;;;19.85;41.11
33697;BME280;20031;43.416;23.232;2023-03-21T09:49:22;99855.94;;;19.83;40.86
33697;BME280;20031;43.416;23.232;2023-03-21T09:51:51;99854.13;;;19.83;40.66
33697;BME280;20031;43.416;23.232;2023-03-21T09:54:41;99858.41;;;19.66;40.13
33697;BME280;20031;43.416;23.232;2023-03-21T09:57:40;99848.56;;;19.55;40.96
33697;BME280;20031;43.416;23.232;2023-03-21T10:00:14;99848.41;;;19.68;40.85
33697;BME280;20031;43.416;23.232;2023-03-21T10:02:49;99842.97;;;19.99;40.95
33697;BME280;20031;43.416;23.232;2023-03-21T10:05:26;99843.94;;;20.45;40.75
33697;BME280;20031;43.416;23.232;2023-03-21T10:08:01;99844.38;;;20.71;39.40
33697;BME280;20031;43.416;23.232;2023-03-21T10:10:42;99834.94;;;20.87;38.62
33697;BME280;20031;43.416;23.232;2023-03-21T10:13:16;99837.44;;;20.70;38.84
33697;BME280;20031;43.416;23.232;2023-03-21T10:15:42;99836.50;;;20.65;39.37
33697;BME280;20031;43.416;23.232;2023-03-21T10:18:12;99830.91;;;21.07;39.68
33697;BME280;20031;43.416;23.232;2023-03-21T10:20:41;99837.31;;;21.68;38.79
33697;BME280;20031;43.416;23.232;2023-03-21T10:23:14;99834.25;;;22.26;37.39
33697;BME280;20031;43.416;23.232;2023-03-21T10:25:48;99827.22;;;22.48;36.75
33697;BME280;20031;43.416;23.232;2023-03-21T10:28:21;99828.44;;;22.73;36.53
33697;BME280;20031;43.416;23.232;2023-03-21T10:30:49;99816.50;;;22.76;35.40
33697;BME280;20031;43.416;23.232;2023-03-21T10:33:19;99812.88;;;22.49;35.97
33697;BME280;20031;43.416;23.232;2023-03-21T10:35:59;99813.41;;;22.35;35.32
33697;BME280;20031;43.416;23.232;2023-03-21T10:38:26;99813.19;;;22.08;35.96
33697;BME280;20031;43.416;23.232;2023-03-21T10:40:52;99815.56;;;21.54;36.67
33697;BME280;20031;43.416;23.232;2023-03-21T10:45:50;99803.50;;;20.90;38.65
33697;BME280;20031;43.416;23.232;2023-03-21T10:48:16;99797.00;;;20.52;38.46
33697;BME280;20031;43.416;23.232;2023-03-21T10:50:42;99796.22;;;20.63;39.45
33697;BME280;20031;43.416;23.232;2023-03-21T10:53:19;99791.31;;;20.89;38.68
33697;BME280;20031;43.416;23.232;2023-03-21T10:55:55;99788.09;;;20.99;38.13
33697;BME280;20031;43.416;23.232;2023-03-21T10:58:26;99785.88;;;21.07;37.86
33697;BME280;20031;43.416;23.232;2023-03-21T11:00:58;99780.03;;;21.05;38.33
33697;BME280;20031;43.416;23.232;2023-03-21T11:03:36;99785.66;;;21.08;38.21
33697;BME280;20031;43.416;23.232;2023-03-21T11:06:06;99778.84;;;21.12;38.15
33697;BME280;20031;43.416;23.232;2023-03-21T11:09:11;99781.97;;;21.09;37.76
33697;BME280;20031;43.416;23.232;2023-03-21T11:11:49;99768.38;;;20.95;37.92
33697;BME280;20031;43.416;23.232;2023-03-21T11:19:59;99765.22;;;21.43;37.93
33697;BME280;20031;43.416;23.232;2023-03-21T11:22:28;99758.75;;;21.78;37.40
33697;BME280;20031;43.416;23.232;2023-03-21T11:25:00;99758.19;;;22.04;36.53
33697;BME280;20031;43.416;23.232;2023-03-21T11:27:27;99753.94;;;22.19;36.56
33697;BME280;20031;43.416;23.232;2023-03-21T11:29:55;99759.94;;;22.26;35.89
33697;BME280;20031;43.416;23.232;2023-03-21T11:32:32;99758.25;;;22.37;35.86
33697;BME280;20031;43.416;23.232;2023-03-21T11:37:41;99749.22;;;22.87;35.11
33697;BME280;20031;43.416;23.232;2023-03-21T11:40:22;99747.28;;;22.99;34.95
33697;BME280;20031;43.416;23.232;2023-03-21T11:42:53;99740.59;;;22.80;34.54
33697;BME280;20031;43.416;23.232;2023-03-21T11:45:26;99745.63;;;22.60;34.99
33697;BME280;20031;43.416;23.232;2023-03-21T11:47:56;99734.84;;;22.50;35.40
33697;BME280;20031;43.416;23.232;2023-03-21T11:50:46;99737.41;;;22.61;34.26
33697;BME280;20031;43.416;23.232;2023-03-21T11:53:27;99735.19;;;22.54;34.72
33697;BME280;20031;43.416;23.232;2023-03-21T12:01:29;99727.41;;;22.03;36.11
33697;BME280;20031;43.416;23.232;2023-03-21T12:04:19;99736.09;;;21.99;35.72
33697;BME280;20031;43.416;23.232;2023-03-21T12:09:50;99727.34;;;21.70;36.20
33697;BME280;20031;43.416;23.232;2023-03-21T12:15:05;99718.59;;;22.30;35.33
33697;BME280;20031;43.416;23.232;2023-03-21T12:20:31;99712.06;;;22.38;35.50
33697;BME280;20031;43.416;23.232;2023-03-21T12:23:29;99705.91;;;22.32;35.45
33697;BME280;20031;43.416;23.232;2023-03-21T12:26:15;99697.94;;;22.32;35.60
33697;BME280;20031;43.416;23.232;2023-03-21T12:40:21;99698.06;;;21.38;35.93
33697;BME280;20031;43.416;23.232;2023-03-21T12:45:41;99694.56;;;21.49;35.93
33697;BME280;20031;43.416;23.232;2023-03-21T12:48:35;99692.75;;;21.38;35.11
33697;BME280;20031;43.416;23.232;2023-03-21T12:51:04;99689.91;;;21.28;36.18
33697;BME280;20031;43.416;23.232;2023-03-21T12:53:47;99681.31;;;21.09;35.81
33697;BME280;20031;43.416;23.232;2023-03-21T12:56:23;99682.72;;;21.01;36.04
33697;BME280;20031;43.416;23.232;2023-03-21T12:59:03;99681.13;;;21.00;36.27
33697;BME280;20031;43.416;23.232;2023-03-21T13:01:31;99678.13;;;20.85;37.54
33697;BME280;20031;43.416;23.232;2023-03-21T13:06:53;99676.19;;;20.57;37.43
33697;BME280;20031;43.416;23.232;2023-03-21T13:09:30;99665.75;;;20.51;37.64
33697;BME280;20031;43.416;23.232;2023-03-21T13:11:58;99660.44;;;20.51;37.54
33697;BME280;20031;43.416;23.232;2023-03-21T13:14:34;99652.38;;;20.46;38.39
33697;BME280;20031;43.416;23.232;2023-03-21T13:17:20;99659.63;;;20.39;38.58
33697;BME280;20031;43.416;23.232;2023-03-21T13:20:03;99659.84;;;20.38;38.77
33697;BME280;20031;43.416;23.232;2023-03-21T13:22:31;99653.78;;;20.37;38.48
33697;BME280;20031;43.416;23.232;2023-03-21T13:25:06;99658.13;;;20.32;38.78
33697;BME280;20031;43.416;23.232;2023-03-21T13:27:41;99646.28;;;20.23;39.24
33697;BME280;20031;43.416;23.232;2023-03-21T13:30:22;99644.44;;;20.23;39.53
33697;BME280;20031;43.416;23.232;2023-03-21T13:33:01;99647.88;;;20.24;40.15
33697;BME280;20031;43.416;23.232;2023-03-21T13:35:34;99650.06;;;20.15;40.38
33697;BME280;20031;43.416;23.232;2023-03-21T13:38:13;99648.47;;;20.14;40.86
33697;BME280;20031;43.416;23.232;2023-03-21T13:41:14;99646.06;;;20.13;40.96
33697;BME280;20031;43.416;23.232;2023-03-21T13:43:53;99643.66;;;20.11;40.70
33697;BME280;20031;43.416;23.232;2023-03-21T13:56:51;99645.00;;;19.50;43.23
33697;BME280;20031;43.416;23.232;2023-03-21T14:04:46;99640.91;;;19.37;44.00
33697;BME280;20031;43.416;23.232;2023-03-21T14:07:25;99631.25;;;19.31;43.74
33697;BME280;20031;43.416;23.232;2023-03-21T14:09:53;99637.56;;;19.30;44.21
33697;BME280;20031;43.416;23.232;2023-03-21T14:12:45;99633.97;;;19.24;44.30
33697;BME280;20031;43.416;23.232;2023-03-21T14:15:22;99634.16;;;19.11;44.33
33697;BME280;20031;43.416;23.232;2023-03-21T14:17:53;99635.47;;;19.02;44.80
33697;BME280;20031;43.416;23.232;2023-03-21T14:20:27;99630.47;;;18.94;44.72
33697;BME280;20031;43.416;23.232;2023-03-21T14:22:53;99624.69;;;18.86;45.14
33697;BME280;20031;43.416;23.232;2023-03-21T14:25:21;99623.81;;;18.74;45.34
33697;BME280;20031;43.416;23.232;2023-03-21T14:27:50;99621.25;;;18.68;45.68
33697;BME280;20031;43.416;23.232;2023-03-21T14:30:30;99626.97;;;18.65;45.86
33697;BME280;20031;43.416;23.232;2023-03-21T14:32:59;99623.16;;;18.61;45.96
33697;BME280;20031;43.416;23.232;2023-03-21T14:35:29;99623.25;;;18.54;46.09
33697;BME280;20031;43.416;23.232;2023-03-21T14:37:59;99622.28;;;18.49;46.76
33697;BME280;20031;43.416;23.232;2023-03-21T14:40:27;99623.50;;;18.46;46.74
33697;BME280;20031;43.416;23.232;2023-03-21T14:42:53;99626.59;;;18.43;46.81